sensor_id;sensor_type;location;lat;lon;timestamp;temperature;humidity
37240;DHT22;23130;48.760;9.178;2024-02-21T00:00:40;6.40;99.90
37240;DHT22;23130;48.760;9.178;2024-02-21T00:03:06;6.40;99.90
37240;DHT22;23130;48.760;9.178;2024-02-21T00:05:32;6.40;99.90
37240;DHT22;23130;48.760;9.178;2024-02-21T00:08:01;6.40;99.90
37240;DHT22;23130;48.760;9.178;2024-02-21T00:10:28;6.40;99.90
37240;DHT22;23130;48.760;9.178;2024-02-21T00:12:54;6.40;99.90
37240;DHT22;23130;48.760;9.178;2024-02-21T00:15:20;6.30;99.90
37240;DHT22;23130;48.760;9.178;2024-02-21T00:17:45;6.30;99.90
37240;DHT22;23130;48.760;9.178;2024-02-21T00:20:11;6.30;99.90
37240;DHT22;23130;48.760;9.178;2024-02-21T00:22:37;6.30;99.90
37240;DHT22;23130;48.760;9.178;2024-02-21T00:25:03;6.30;99.90
37240;DHT22;23130;48.760;9.178;2024-02-21T00:27:30;6.30;99.90
37240;DHT22;23130;48.760;9.178;2024-02-21T00:29:56;6.30;99.90
37240;DHT22;23130;48.760;9.178;2024-02-21T00:32:21;6.30;99.90
37240;DHT22;23130;48.760;9.178;2024-02-21T00:34:47;6.40;99.90
37240;DHT22;23130;48.760;9.178;2024-02-21T00:37:12;6.40;99.90
37240;DHT22;23130;48.760;9.178;2024-02-21T00:39:39;6.50;99.90
37240;DHT22;23130;48.760;9.178;2024-02-21T00:42:05;6.60;99.90
37240;DHT22;23130;48.760;9.178;2024-02-21T00:44:30;6.70;99.90
37240;DHT22;23130;48.760;9.178;2024-02-21T00:46:55;6.80;99.90
37240;DHT22;23130;48.760;9.178;2024-02-21T00:49:21;6.80;99.90
37240;DHT22;23130;48.760;9.178;2024-02-21T00:51:47;6.80;99.90
37240;DHT22;23130;48.760;9.178;2024-02-21T00:54:13;6.90;99.90
37240;DHT22;23130;48.760;9.178;2024-02-21T00:56:38;6.90;99.90
37240;DHT22;23130;48.760;9.178;2024-02-21T00:59:04;6.90;99.90
37240;DHT22;23130;48.760;9.178;2024-02-21T01:01:29;6.90;99.90
37240;DHT22;23130;48.760;9.178;2024-02-21T01:03:55;6.90;99.90
37240;DHT22;23130;48.760;9.178;2024-02-21T01:06:20;6.90;99.90
37240;DHT22;23130;48.760;9.178;2024-02-21T01:08:47;6.80;99.90
37240;DHT22;23130;48.760;9.178;2024-02-21T01:11:17;6.80;99.90
37240;DHT22;23130;48.760;9.178;2024-02-21T01:13:42;6.70;99.90
37240;DHT22;23130;48.760;9.178;2024-02-21T01:16:08;6.70;99.90
37240;DHT22;23130;48.760;9.178;2024-02-21T01:18:34;6.60;99.90
37240;DHT22;23130;48.760;9.178;2024-02-21T01:21:00;6.60;99.90
37240;DHT22;23130;48.760;9.178;2024-02-21T01:23:27;6.50;99.90
37240;DHT22;23130;48.760;9.178;2024-02-21T01:25:52;6.50;99.90
37240;DHT22;23130;48.760;9.178;2024-02-21T01:28:18;6.40;99.90
37240;DHT22;23130;48.760;9.178;2024-02-21T01:30:43;6.40;99.90
37240;DHT22;23130;48.760;9.178;2024-02-21T01:33:10;6.40;99.90
37240;DHT22;23130;48.760;9.178;2024-02-21T01:35:35;6.30;99.90
37240;DHT22;23130;48.760;9.178;2024-02-21T01:38:02;6.30;99.90
37240;DHT22;23130;48.760;9.178;2024-02-21T01:40:29;6.30;99.90
37240;DHT22;23130;48.760;9.178;2024-02-21T01:42:55;6.30;99.90
37240;DHT22;23130;48.760;9.178;2024-02-21T01:45:22;6.30;99.90
37240;DHT22;23130;48.760;9.178;2024-02-21T01:47:48;6.20;99.90
37240;DHT22;23130;48.760;9.178;2024-02-21T01:50:13;6.20;99.90
37240;DHT22;23130;48.760;9.178;2024-02-21T01:52:39;6.20;99.90
37240;DHT22;23130;48.760;9.178;2024-02-21T01:55:05;6.20;99.90
37240;DHT22;23130;48.760;9.178;2024-02-21T01:57:31;6.20;99.90
37240;DHT22;23130;48.760;9.178;2024-02-21T01:59:57;6.20;99.90
37240;DHT22;23130;48.760;9.178;2024-02-21T02:02:23;6.20;99.90
37240;DHT22;23130;48.760;9.178;2024-02-21T02:04:50;6.20;99.90
37240;DHT22;23130;48.760;9.178;2024-02-21T02:07:17;6.20;99.90
37240;DHT22;23130;48.760;9.178;2024-02-21T02:09:42;6.20;99.90
37240;DHT22;23130;48.760;9.178;2024-02-21T02:12:08;6.20;99.90
37240;DHT22;23130;48.760;9.178;2024-02-21T02:14:33;6.20;99.90
37240;DHT22;23130;48.760;9.178;2024-02-21T02:16:59;6.20;99.90
37240;DHT22;23130;48.760;9.178;2024-02-21T02:19:24;6.20;99.90
37240;DHT22;23130;48.760;9.178;2024-02-21T02:21:50;6.20;99.90
37240;DHT22;23130;48.760;9.178;2024-02-21T02:24:22;6.20;99.90
37240;DHT22;23130;48.760;9.178;2024-02-21T02:26:49;6.20;99.90
37240;DHT22;23130;48.760;9.178;2024-02-21T02:29:15;6.20;99.90
37240;DHT22;23130;48.760;9.178;2024-02-21T02:31:42;6.20;99.90
37240;DHT22;23130;48.760;9.178;2024-02-21T02:34:07;6.20;99.90
37240;DHT22;23130;48.760;9.178;2024-02-21T02:36:33;6.20;99.90
37240;DHT22;23130;48.760;9.178;2024-02-21T02:39:00;6.10;99.90
37240;DHT22;23130;48.760;9.178;2024-02-21T02:41:25;6.20;99.90
37240;DHT22;23130;48.760;9.178;2024-02-21T02:43:51;6.20;99.90
37240;DHT22;23130;48.760;9.178;2024-02-21T02:46:18;6.20;99.90
37240;DHT22;23130;48.760;9.178;2024-02-21T02:48:43;6.20;99.90
37240;DHT22;23130;48.760;9.178;2024-02-21T02:51:10;6.20;99.90
37240;DHT22;23130;48.760;9.178;2024-02-21T02:53:35;6.20;99.90
37240;DHT22;23130;48.760;9.178;2024-02-21T02:56:01;6.20;99.90
37240;DHT22;23130;48.760;9.178;2024-02-21T02:58:27;6.20;99.90
37240;DHT22;23130;48.760;9.178;2024-02-21T03:00:52;6.20;99.90
37240;DHT22;23130;48.760;9.178;2024-02-21T03:03:17;6.20;99.90
37240;DHT22;23130;48.760;9.178;2024-02-21T03:05:43;6.10;99.90
37240;DHT22;23130;48.760;9.178;2024-02-21T03:08:09;6.10;99.90
37240;DHT22;23130;48.760;9.178;2024-02-21T03:10:34;6.10;99.90
37240;DHT22;23130;48.760;9.178;2024-02-21T03:13:01;6.10;99.90
37240;DHT22;23130;48.760;9.178;2024-02-21T03:15:27;6.00;99.90
37240;DHT22;23130;48.760;9.178;2024-02-21T03:17:52;5.90;99.90
37240;DHT22;23130;48.760;9.178;2024-02-21T03:20:18;5.80;99.90
37240;DHT22;23130;48.760;9.178;2024-02-21T03:22:45;5.70;99.90
37240;DHT22;23130;48.760;9.178;2024-02-21T03:25:10;5.60;99.90
37240;DHT22;23130;48.760;9.178;2024-02-21T03:27:36;5.60;99.90
37240;DHT22;23130;48.760;9.178;2024-02-21T03:30:02;5.60;99.90
37240;DHT22;23130;48.760;9.178;2024-02-21T03:32:27;5.50;99.90
37240;DHT22;23130;48.760;9.178;2024-02-21T03:34:53;5.60;99.90
37240;DHT22;23130;48.760;9.178;2024-02-21T03:37:20;5.50;99.90
37240;DHT22;23130;48.760;9.178;2024-02-21T03:39:47;5.50;99.90
37240;DHT22;23130;48.760;9.178;2024-02-21T03:42:14;5.50;99.90
37240;DHT22;23130;48.760;9.178;2024-02-21T03:44:39;5.50;99.90
37240;DHT22;23130;48.760;9.178;2024-02-21T03:47:05;5.50;99.90
37240;DHT22;23130;48.760;9.178;2024-02-21T03:49:30;5.50;99.90
37240;DHT22;23130;48.760;9.178;2024-02-21T03:51:55;5.60;99.90
37240;DHT22;23130;48.760;9.178;2024-02-21T03:54:21;5.50;99.90
37240;DHT22;23130;48.760;9.178;2024-02-21T03:56:47;5.60;99.90
37240;DHT22;23130;48.760;9.178;2024-02-21T03:59:17;5.60;99.90
37240;DHT22;23130;48.760;9.178;2024-02-21T04:01:42;5.70;99.90
37240;DHT22;23130;48.760;9.178;2024-02-21T04:04:09;5.70;99.90
37240;DHT22;23130;48.760;9.178;2024-02-21T04:06:36;5.70;99.90
37240;DHT22;23130;48.760;9.178;2024-02-21T04:09:02;5.70;99.90
37240;DHT22;23130;48.760;9.178;2024-02-21T04:11:27;5.70;99.90
37240;DHT22;23130;48.760;9.178;2024-02-21T04:13:53;5.80;99.90
37240;DHT22;23130;48.760;9.178;2024-02-21T04:16:19;5.80;99.90
37240;DHT22;23130;48.760;9.178;2024-02-21T04:18:45;5.80;99.90
37240;DHT22;23130;48.760;9.178;2024-02-21T04:21:13;5.80;99.90
37240;DHT22;23130;48.760;9.178;2024-02-21T04:23:40;5.80;99.90
37240;DHT22;23130;48.760;9.178;2024-02-21T04:26:06;5.70;99.90
37240;DHT22;23130;48.760;9.178;2024-02-21T04:28:31;5.60;99.90
37240;DHT22;23130;48.760;9.178;2024-02-21T04:30:57;5.60;99.90
37240;DHT22;23130;48.760;9.178;2024-02-21T04:33:22;5.50;99.90
37240;DHT22;23130;48.760;9.178;2024-02-21T04:35:48;5.40;99.90
37240;DHT22;23130;48.760;9.178;2024-02-21T04:38:13;5.40;99.90
37240;DHT22;23130;48.760;9.178;2024-02-21T04:40:40;5.40;99.90
37240;DHT22;23130;48.760;9.178;2024-02-21T04:43:05;5.40;99.90
37240;DHT22;23130;48.760;9.178;2024-02-21T04:45:31;5.30;99.90
37240;DHT22;23130;48.760;9.178;2024-02-21T04:47:56;5.30;99.90
37240;DHT22;23130;48.760;9.178;2024-02-21T04:50:23;5.30;99.90
37240;DHT22;23130;48.760;9.178;2024-02-21T04:52:48;5.30;99.90
37240;DHT22;23130;48.760;9.178;2024-02-21T04:55:14;5.20;99.90
37240;DHT22;23130;48.760;9.178;2024-02-21T04:57:39;5.30;99.90
37240;DHT22;23130;48.760;9.178;2024-02-21T05:00:05;5.20;99.90
37240;DHT22;23130;48.760;9.178;2024-02-21T05:02:32;5.20;99.90
37240;DHT22;23130;48.760;9.178;2024-02-21T05:04:57;5.10;99.90
37240;DHT22;23130;48.760;9.178;2024-02-21T05:07:23;5.10;99.90
37240;DHT22;23130;48.760;9.178;2024-02-21T05:09:49;5.00;99.90
37240;DHT22;23130;48.760;9.178;2024-02-21T05:12:15;5.00;99.90
37240;DHT22;23130;48.760;9.178;2024-02-21T05:14:41;4.90;99.90
37240;DHT22;23130;48.760;9.178;2024-02-21T05:17:06;4.90;99.90
37240;DHT22;23130;48.760;9.178;2024-02-21T05:19:32;4.90;99.90
37240;DHT22;23130;48.760;9.178;2024-02-21T05:21:58;4.80;99.90
37240;DHT22;23130;48.760;9.178;2024-02-21T05:24:24;4.80;99.90
37240;DHT22;23130;48.760;9.178;2024-02-21T05:26:49;4.90;99.90
37240;DHT22;23130;48.760;9.178;2024-02-21T05:29:14;5.00;99.90
37240;DHT22;23130;48.760;9.178;2024-02-21T05:34:23;5.00;99.90
37240;DHT22;23130;48.760;9.178;2024-02-21T05:36:49;5.10;99.90
37240;DHT22;23130;48.760;9.178;2024-02-21T05:39:17;5.10;99.90
37240;DHT22;23130;48.760;9.178;2024-02-21T05:41:43;5.20;99.90
37240;DHT22;23130;48.760;9.178;2024-02-21T05:44:08;5.20;99.90
37240;DHT22;23130;48.760;9.178;2024-02-21T05:46:34;5.20;99.90
37240;DHT22;23130;48.760;9.178;2024-02-21T05:49:00;5.30;99.90
37240;DHT22;23130;48.760;9.178;2024-02-21T05:51:26;5.30;99.90
37240;DHT22;23130;48.760;9.178;2024-02-21T05:53:51;5.30;99.90
37240;DHT22;23130;48.760;9.178;2024-02-21T05:56:17;5.30;99.90
37240;DHT22;23130;48.760;9.178;2024-02-21T05:58:43;5.30;99.90
37240;DHT22;23130;48.760;9.178;2024-02-21T06:01:09;5.30;99.90
37240;DHT22;23130;48.760;9.178;2024-02-21T06:03:35;5.30;99.90
37240;DHT22;23130;48.760;9.178;2024-02-21T06:06:01;5.30;99.90
37240;DHT22;23130;48.760;9.178;2024-02-21T06:08:27;5.20;99.90
37240;DHT22;23130;48.760;9.178;2024-02-21T06:10:52;5.10;99.90
37240;DHT22;23130;48.760;9.178;2024-02-21T06:13:28;5.10;99.90
37240;DHT22;23130;48.760;9.178;2024-02-21T06:15:54;5.00;99.90
37240;DHT22;23130;48.760;9.178;2024-02-21T06:18:20;4.90;99.90
37240;DHT22;23130;48.760;9.178;2024-02-21T06:20:45;4.80;99.90
37240;DHT22;23130;48.760;9.178;2024-02-21T06:23:15;4.80;99.90
37240;DHT22;23130;48.760;9.178;2024-02-21T06:25:48;4.90;99.90
37240;DHT22;23130;48.760;9.178;2024-02-21T06:28:15;4.90;99.90
37240;DHT22;23130;48.760;9.178;2024-02-21T06:30:41;4.90;99.90
37240;DHT22;23130;48.760;9.178;2024-02-21T06:33:07;4.90;99.90
37240;DHT22;23130;48.760;9.178;2024-02-21T06:35:33;4.90;99.90
37240;DHT22;23130;48.760;9.178;2024-02-21T06:37:59;4.90;99.90
37240;DHT22;23130;48.760;9.178;2024-02-21T06:40:24;4.90;99.90
37240;DHT22;23130;48.760;9.178;2024-02-21T06:42:50;4.90;99.90
37240;DHT22;23130;48.760;9.178;2024-02-21T06:45:16;4.90;99.90
37240;DHT22;23130;48.760;9.178;2024-02-21T06:47:42;5.00;99.90
37240;DHT22;23130;48.760;9.178;2024-02-21T06:50:07;5.00;99.90
37240;DHT22;23130;48.760;9.178;2024-02-21T06:52:34;5.10;99.90
37240;DHT22;23130;48.760;9.178;2024-02-21T06:54:59;5.20;99.90
37240;DHT22;23130;48.760;9.178;2024-02-21T06:57:25;5.20;99.90
37240;DHT22;23130;48.760;9.178;2024-02-21T06:59:50;5.30;99.90
37240;DHT22;23130;48.760;9.178;2024-02-21T07:02:15;5.40;99.90
37240;DHT22;23130;48.760;9.178;2024-02-21T07:04:41;5.50;99.90
37240;DHT22;23130;48.760;9.178;2024-02-21T07:07:07;5.60;99.90
37240;DHT22;23130;48.760;9.178;2024-02-21T07:09:33;5.60;99.90
37240;DHT22;23130;48.760;9.178;2024-02-21T07:11:59;5.70;99.90
37240;DHT22;23130;48.760;9.178;2024-02-21T07:14:25;5.80;99.90
37240;DHT22;23130;48.760;9.178;2024-02-21T07:16:51;5.90;99.90
37240;DHT22;23130;48.760;9.178;2024-02-21T07:19:17;5.90;99.90
37240;DHT22;23130;48.760;9.178;2024-02-21T07:21:42;5.90;99.90
37240;DHT22;23130;48.760;9.178;2024-02-21T07:24:09;6.00;99.90
37240;DHT22;23130;48.760;9.178;2024-02-21T07:26:35;6.00;99.90
37240;DHT22;23130;48.760;9.178;2024-02-21T07:29:00;6.10;99.90
37240;DHT22;23130;48.760;9.178;2024-02-21T07:31:26;6.20;99.90
37240;DHT22;23130;48.760;9.178;2024-02-21T07:33:51;6.30;99.90
37240;DHT22;23130;48.760;9.178;2024-02-21T07:36:25;6.40;99.90
37240;DHT22;23130;48.760;9.178;2024-02-21T07:38:50;6.50;99.90
37240;DHT22;23130;48.760;9.178;2024-02-21T07:41:16;6.60;99.90
37240;DHT22;23130;48.760;9.178;2024-02-21T07:43:42;6.70;99.90
37240;DHT22;23130;48.760;9.178;2024-02-21T07:46:07;6.80;99.90
37240;DHT22;23130;48.760;9.178;2024-02-21T07:48:33;6.90;99.90
37240;DHT22;23130;48.760;9.178;2024-02-21T07:50:58;7.00;99.90
37240;DHT22;23130;48.760;9.178;2024-02-21T07:53:24;7.10;99.90
37240;DHT22;23130;48.760;9.178;2024-02-21T07:55:49;7.10;99.90
37240;DHT22;23130;48.760;9.178;2024-02-21T07:58:14;7.20;99.90
37240;DHT22;23130;48.760;9.178;2024-02-21T08:00:41;7.30;99.90
37240;DHT22;23130;48.760;9.178;2024-02-21T08:03:07;7.40;99.90
37240;DHT22;23130;48.760;9.178;2024-02-21T08:05:34;7.50;99.90
37240;DHT22;23130;48.760;9.178;2024-02-21T08:08:01;7.50;99.90
37240;DHT22;23130;48.760;9.178;2024-02-21T08:10:28;7.60;99.90
37240;DHT22;23130;48.760;9.178;2024-02-21T08:12:53;7.70;99.90
37240;DHT22;23130;48.760;9.178;2024-02-21T08:15:18;7.80;99.90
37240;DHT22;23130;48.760;9.178;2024-02-21T08:17:44;7.90;99.90
37240;DHT22;23130;48.760;9.178;2024-02-21T08:20:09;7.90;99.90
37240;DHT22;23130;48.760;9.178;2024-02-21T08:22:37;8.10;99.90
37240;DHT22;23130;48.760;9.178;2024-02-21T08:25:02;8.10;99.90
37240;DHT22;23130;48.760;9.178;2024-02-21T08:27:30;8.30;99.90
37240;DHT22;23130;48.760;9.178;2024-02-21T08:29:56;8.30;99.90
37240;DHT22;23130;48.760;9.178;2024-02-21T08:32:21;8.40;99.90
37240;DHT22;23130;48.760;9.178;2024-02-21T08:34:47;8.50;99.90
37240;DHT22;23130;48.760;9.178;2024-02-21T08:37:13;8.50;99.90
37240;DHT22;23130;48.760;9.178;2024-02-21T08:39:38;8.60;99.90
37240;DHT22;23130;48.760;9.178;2024-02-21T08:42:04;8.70;99.90
37240;DHT22;23130;48.760;9.178;2024-02-21T08:44:29;8.80;99.90
37240;DHT22;23130;48.760;9.178;2024-02-21T08:46:56;8.90;99.90
37240;DHT22;23130;48.760;9.178;2024-02-21T08:49:22;9.10;99.90
37240;DHT22;23130;48.760;9.178;2024-02-21T08:51:47;9.20;99.90
37240;DHT22;23130;48.760;9.178;2024-02-21T08:54:13;9.20;99.90
37240;DHT22;23130;48.760;9.178;2024-02-21T08:56:39;9.40;99.90
37240;DHT22;23130;48.760;9.178;2024-02-21T08:59:04;9.40;99.90
37240;DHT22;23130;48.760;9.178;2024-02-21T09:01:30;9.50;99.90
37240;DHT22;23130;48.760;9.178;2024-02-21T09:03:56;9.60;99.90
37240;DHT22;23130;48.760;9.178;2024-02-21T09:06:22;9.60;99.90
37240;DHT22;23130;48.760;9.178;2024-02-21T09:08:48;9.60;99.90
37240;DHT22;23130;48.760;9.178;2024-02-21T09:11:13;9.70;99.90
37240;DHT22;23130;48.760;9.178;2024-02-21T09:13:39;9.70;99.90
37240;DHT22;23130;48.760;9.178;2024-02-21T09:16:04;9.90;99.90
37240;DHT22;23130;48.760;9.178;2024-02-21T09:18:32;9.90;99.90
37240;DHT22;23130;48.760;9.178;2024-02-21T09:20:57;9.80;99.90
37240;DHT22;23130;48.760;9.178;2024-02-21T09:23:27;9.90;99.90
37240;DHT22;23130;48.760;9.178;2024-02-21T09:25:53;9.90;99.90
37240;DHT22;23130;48.760;9.178;2024-02-21T09:28:20;9.90;99.90
37240;DHT22;23130;48.760;9.178;2024-02-21T09:30:46;9.90;99.90
37240;DHT22;23130;48.760;9.178;2024-02-21T09:33:11;10.00;99.90
37240;DHT22;23130;48.760;9.178;2024-02-21T09:35:37;10.00;99.90
37240;DHT22;23130;48.760;9.178;2024-02-21T09:38:02;10.00;99.90
37240;DHT22;23130;48.760;9.178;2024-02-21T09:40:28;10.00;99.90
37240;DHT22;23130;48.760;9.178;2024-02-21T09:42:59;10.00;99.90
37240;DHT22;23130;48.760;9.178;2024-02-21T09:45:28;10.10;99.90
37240;DHT22;23130;48.760;9.178;2024-02-21T09:48:00;10.20;99.90
37240;DHT22;23130;48.760;9.178;2024-02-21T09:50:32;10.30;99.90
37240;DHT22;23130;48.760;9.178;2024-02-21T09:52:59;10.40;99.90
37240;DHT22;23130;48.760;9.178;2024-02-21T09:55:27;10.50;99.90
37240;DHT22;23130;48.760;9.178;2024-02-21T09:57:52;10.60;99.90
37240;DHT22;23130;48.760;9.178;2024-02-21T10:00:18;10.70;99.90
37240;DHT22;23130;48.760;9.178;2024-02-21T10:02:49;10.70;99.90
37240;DHT22;23130;48.760;9.178;2024-02-21T10:05:15;10.80;99.90
37240;DHT22;23130;48.760;9.178;2024-02-21T10:07:41;10.90;99.90
37240;DHT22;23130;48.760;9.178;2024-02-21T10:10:07;10.90;99.90
37240;DHT22;23130;48.760;9.178;2024-02-21T10:12:33;10.90;99.90
37240;DHT22;23130;48.760;9.178;2024-02-21T10:15:05;10.90;99.90
37240;DHT22;23130;48.760;9.178;2024-02-21T10:17:34;11.00;99.90
37240;DHT22;23130;48.760;9.178;2024-02-21T10:20:07;11.00;99.90
37240;DHT22;23130;48.760;9.178;2024-02-21T10:22:32;11.00;99.90
37240;DHT22;23130;48.760;9.178;2024-02-21T10:25:10;11.10;99.90
37240;DHT22;23130;48.760;9.178;2024-02-21T10:27:36;11.20;99.90
37240;DHT22;23130;48.760;9.178;2024-02-21T10:30:06;11.20;99.90
37240;DHT22;23130;48.760;9.178;2024-02-21T10:32:32;11.40;99.90
37240;DHT22;23130;48.760;9.178;2024-02-21T10:35:02;11.50;99.90
37240;DHT22;23130;48.760;9.178;2024-02-21T10:37:30;11.50;99.90
37240;DHT22;23130;48.760;9.178;2024-02-21T10:39:55;11.70;99.90
37240;DHT22;23130;48.760;9.178;2024-02-21T10:42:22;11.80;99.90
37240;DHT22;23130;48.760;9.178;2024-02-21T10:44:48;12.00;99.90
37240;DHT22;23130;48.760;9.178;2024-02-21T10:47:16;12.20;99.90
37240;DHT22;23130;48.760;9.178;2024-02-21T10:49:47;12.40;99.90
37240;DHT22;23130;48.760;9.178;2024-02-21T10:52:17;12.40;99.90
37240;DHT22;23130;48.760;9.178;2024-02-21T10:57:16;12.60;99.90
37240;DHT22;23130;48.760;9.178;2024-02-21T10:59:42;12.80;99.90
37240;DHT22;23130;48.760;9.178;2024-02-21T11:02:07;12.80;99.90
37240;DHT22;23130;48.760;9.178;2024-02-21T11:04:33;12.90;99.90
37240;DHT22;23130;48.760;9.178;2024-02-21T11:07:05;12.90;99.90
37240;DHT22;23130;48.760;9.178;2024-02-21T11:09:31;13.00;99.90
37240;DHT22;23130;48.760;9.178;2024-02-21T11:12:05;13.00;99.90
37240;DHT22;23130;48.760;9.178;2024-02-21T11:14:30;12.80;99.90
37240;DHT22;23130;48.760;9.178;2024-02-21T11:17:14;12.90;99.90
37240;DHT22;23130;48.760;9.178;2024-02-21T11:19:39;12.90;99.90
37240;DHT22;23130;48.760;9.178;2024-02-21T11:22:13;13.10;99.90
37240;DHT22;23130;48.760;9.178;2024-02-21T11:24:41;13.10;99.90
37240;DHT22;23130;48.760;9.178;2024-02-21T11:29:39;13.20;99.90
37240;DHT22;23130;48.760;9.178;2024-02-21T11:32:08;13.20;99.90
37240;DHT22;23130;48.760;9.178;2024-02-21T11:34:34;13.20;99.90
37240;DHT22;23130;48.760;9.178;2024-02-21T11:36:59;13.10;99.90
37240;DHT22;23130;48.760;9.178;2024-02-21T11:39:25;13.10;99.90
37240;DHT22;23130;48.760;9.178;2024-02-21T11:42:03;13.30;99.90
37240;DHT22;23130;48.760;9.178;2024-02-21T11:44:30;13.40;99.90
37240;DHT22;23130;48.760;9.178;2024-02-21T11:46:56;13.60;99.90
37240;DHT22;23130;48.760;9.178;2024-02-21T11:49:21;13.40;99.90
37240;DHT22;23130;48.760;9.178;2024-02-21T11:51:46;13.40;99.90
37240;DHT22;23130;48.760;9.178;2024-02-21T11:54:13;13.40;99.90
37240;DHT22;23130;48.760;9.178;2024-02-21T11:56:41;13.50;99.90
37240;DHT22;23130;48.760;9.178;2024-02-21T11:59:08;13.30;99.90
37240;DHT22;23130;48.760;9.178;2024-02-21T12:01:33;13.40;99.90
37240;DHT22;23130;48.760;9.178;2024-02-21T12:03:59;13.40;99.90
37240;DHT22;23130;48.760;9.178;2024-02-21T12:06:24;13.40;99.90
37240;DHT22;23130;48.760;9.178;2024-02-21T12:08:50;13.50;99.90
37240;DHT22;23130;48.760;9.178;2024-02-21T12:11:19;13.60;99.90
37240;DHT22;23130;48.760;9.178;2024-02-21T12:13:45;13.80;99.90
37240;DHT22;23130;48.760;9.178;2024-02-21T12:16:11;13.70;99.90
37240;DHT22;23130;48.760;9.178;2024-02-21T12:18:36;13.70;99.90
37240;DHT22;23130;48.760;9.178;2024-02-21T12:21:01;13.80;99.90
37240;DHT22;23130;48.760;9.178;2024-02-21T12:23:27;13.90;99.90
37240;DHT22;23130;48.760;9.178;2024-02-21T12:25:53;14.00;99.90
37240;DHT22;23130;48.760;9.178;2024-02-21T12:28:21;14.00;99.90
37240;DHT22;23130;48.760;9.178;2024-02-21T12:30:47;14.10;99.90
37240;DHT22;23130;48.760;9.178;2024-02-21T12:33:12;14.00;99.90
37240;DHT22;23130;48.760;9.178;2024-02-21T12:35:39;14.00;99.90
37240;DHT22;23130;48.760;9.178;2024-02-21T12:38:05;13.90;99.90
37240;DHT22;23130;48.760;9.178;2024-02-21T12:40:31;14.00;99.90
37240;DHT22;23130;48.760;9.178;2024-02-21T12:42:59;14.10;99.90
37240;DHT22;23130;48.760;9.178;2024-02-21T12:45:24;14.10;99.70
37240;DHT22;23130;48.760;9.178;2024-02-21T12:47:50;14.20;99.50
37240;DHT22;23130;48.760;9.178;2024-02-21T12:50:15;14.30;99.80
37240;DHT22;23130;48.760;9.178;2024-02-21T12:52:41;14.20;99.50
37240;DHT22;23130;48.760;9.178;2024-02-21T12:55:06;14.10;99.90
37240;DHT22;23130;48.760;9.178;2024-02-21T12:57:33;14.20;99.90
37240;DHT22;23130;48.760;9.178;2024-02-21T12:59:58;14.30;99.70
37240;DHT22;23130;48.760;9.178;2024-02-21T13:02:23;14.20;99.60
37240;DHT22;23130;48.760;9.178;2024-02-21T13:04:49;14.00;99.10
37240;DHT22;23130;48.760;9.178;2024-02-21T13:07:14;14.10;99.30
37240;DHT22;23130;48.760;9.178;2024-02-21T13:09:40;14.10;99.60
37240;DHT22;23130;48.760;9.178;2024-02-21T13:12:05;14.10;99.40
37240;DHT22;23130;48.760;9.178;2024-02-21T13:14:31;14.00;98.70
37240;DHT22;23130;48.760;9.178;2024-02-21T13:16:58;14.00;99.10
37240;DHT22;23130;48.760;9.178;2024-02-21T13:19:24;14.00;99.10
37240;DHT22;23130;48.760;9.178;2024-02-21T13:21:52;14.00;98.60
37240;DHT22;23130;48.760;9.178;2024-02-21T13:24:18;13.90;98.50
37240;DHT22;23130;48.760;9.178;2024-02-21T13:26:44;14.00;99.00
37240;DHT22;23130;48.760;9.178;2024-02-21T13:29:09;14.10;99.10
37240;DHT22;23130;48.760;9.178;2024-02-21T13:31:35;14.10;99.00
37240;DHT22;23130;48.760;9.178;2024-02-21T13:34:01;14.10;98.30
37240;DHT22;23130;48.760;9.178;2024-02-21T13:36:28;14.10;98.60
37240;DHT22;23130;48.760;9.178;2024-02-21T13:38:53;14.20;98.20
37240;DHT22;23130;48.760;9.178;2024-02-21T13:41:19;14.20;97.60
37240;DHT22;23130;48.760;9.178;2024-02-21T13:43:44;14.20;98.20
37240;DHT22;23130;48.760;9.178;2024-02-21T13:46:11;14.10;98.20
37240;DHT22;23130;48.760;9.178;2024-02-21T13:48:37;14.00;98.20
37240;DHT22;23130;48.760;9.178;2024-02-21T13:51:02;14.00;98.20
37240;DHT22;23130;48.760;9.178;2024-02-21T13:53:28;13.90;98.60
37240;DHT22;23130;48.760;9.178;2024-02-21T13:55:54;13.90;98.70
37240;DHT22;23130;48.760;9.178;2024-02-21T13:58:19;13.80;97.90
37240;DHT22;23130;48.760;9.178;2024-02-21T14:00:46;13.80;98.60
37240;DHT22;23130;48.760;9.178;2024-02-21T14:03:11;13.80;98.00
37240;DHT22;23130;48.760;9.178;2024-02-21T14:05:37;13.70;98.80
37240;DHT22;23130;48.760;9.178;2024-02-21T14:08:02;13.70;97.90
37240;DHT22;23130;48.760;9.178;2024-02-21T14:10:28;13.80;98.60
37240;DHT22;23130;48.760;9.178;2024-02-21T14:12:53;13.80;98.70
37240;DHT22;23130;48.760;9.178;2024-02-21T14:15:20;13.70;97.90
37240;DHT22;23130;48.760;9.178;2024-02-21T14:17:46;13.60;98.60
37240;DHT22;23130;48.760;9.178;2024-02-21T14:20:12;13.60;98.70
37240;DHT22;23130;48.760;9.178;2024-02-21T14:22:39;13.60;98.50
37240;DHT22;23130;48.760;9.178;2024-02-21T14:25:04;13.50;99.80
37240;DHT22;23130;48.760;9.178;2024-02-21T14:27:33;13.50;99.00
37240;DHT22;23130;48.760;9.178;2024-02-21T14:29:58;13.50;98.80
37240;DHT22;23130;48.760;9.178;2024-02-21T14:32:24;13.50;98.90
37240;DHT22;23130;48.760;9.178;2024-02-21T14:34:49;13.50;98.40
37240;DHT22;23130;48.760;9.178;2024-02-21T14:37:15;13.40;97.60
37240;DHT22;23130;48.760;9.178;2024-02-21T14:39:41;13.40;97.80
37240;DHT22;23130;48.760;9.178;2024-02-21T14:42:07;13.40;97.30
37240;DHT22;23130;48.760;9.178;2024-02-21T14:44:35;13.30;97.30
37240;DHT22;23130;48.760;9.178;2024-02-21T14:47:00;13.40;98.40
37240;DHT22;23130;48.760;9.178;2024-02-21T14:49:26;13.40;98.50
37240;DHT22;23130;48.760;9.178;2024-02-21T14:51:54;13.40;97.80
37240;DHT22;23130;48.760;9.178;2024-02-21T14:54:19;13.40;98.30
37240;DHT22;23130;48.760;9.178;2024-02-21T14:56:45;13.40;98.10
37240;DHT22;23130;48.760;9.178;2024-02-21T14:59:12;13.30;98.70
37240;DHT22;23130;48.760;9.178;2024-02-21T15:01:37;13.30;98.80
37240;DHT22;23130;48.760;9.178;2024-02-21T15:04:06;13.20;99.50
37240;DHT22;23130;48.760;9.178;2024-02-21T15:06:33;13.10;99.90
37240;DHT22;23130;48.760;9.178;2024-02-21T15:09:01;13.00;99.30
37240;DHT22;23130;48.760;9.178;2024-02-21T15:11:28;13.00;99.90
37240;DHT22;23130;48.760;9.178;2024-02-21T15:13:53;12.90;99.90
37240;DHT22;23130;48.760;9.178;2024-02-21T15:16:19;12.80;99.90
37240;DHT22;23130;48.760;9.178;2024-02-21T15:18:44;12.80;99.90
37240;DHT22;23130;48.760;9.178;2024-02-21T15:21:09;12.70;99.90
37240;DHT22;23130;48.760;9.178;2024-02-21T15:23:39;12.70;99.90
37240;DHT22;23130;48.760;9.178;2024-02-21T15:26:05;12.70;99.90
37240;DHT22;23130;48.760;9.178;2024-02-21T15:28:30;12.60;99.90
37240;DHT22;23130;48.760;9.178;2024-02-21T15:30:57;12.60;99.90
37240;DHT22;23130;48.760;9.178;2024-02-21T15:33:23;12.50;99.90
37240;DHT22;23130;48.760;9.178;2024-02-21T15:35:49;12.50;99.90
37240;DHT22;23130;48.760;9.178;2024-02-21T15:38:14;12.50;99.90
37240;DHT22;23130;48.760;9.178;2024-02-21T15:40:39;12.40;99.90